sensor_id;sensor_type;location;lat;lon;timestamp;temperature;humidity
34492;DHT22;20737;49.908;8.126;2022-10-16T00:00:39;13.90;99.90
34492;DHT22;20737;49.908;8.126;2022-10-16T00:03:06;13.90;99.90
34492;DHT22;20737;49.908;8.126;2022-10-16T00:05:38;13.80;99.90
34492;DHT22;20737;49.908;8.126;2022-10-16T00:08:05;13.90;99.90
34492;DHT22;20737;49.908;8.126;2022-10-16T00:10:32;13.90;99.90
34492;DHT22;20737;49.908;8.126;2022-10-16T00:13:00;13.90;99.90
34492;DHT22;20737;49.908;8.126;2022-10-16T00:15:27;13.90;99.90
34492;DHT22;20737;49.908;8.126;2022-10-16T00:17:54;13.90;99.90
34492;DHT22;20737;49.908;8.126;2022-10-16T00:20:21;13.90;99.90
34492;DHT22;20737;49.908;8.126;2022-10-16T00:22:47;13.90;99.90
34492;DHT22;20737;49.908;8.126;2022-10-16T00:25:14;13.90;99.90
34492;DHT22;20737;49.908;8.126;2022-10-16T00:27:41;13.90;99.90
34492;DHT22;20737;49.908;8.126;2022-10-16T00:30:10;13.90;99.90
34492;DHT22;20737;49.908;8.126;2022-10-16T00:32:37;13.90;99.90
34492;DHT22;20737;49.908;8.126;2022-10-16T00:35:04;14.00;99.90
34492;DHT22;20737;49.908;8.126;2022-10-16T00:37:31;14.00;99.90
34492;DHT22;20737;49.908;8.126;2022-10-16T00:39:57;14.00;99.90
34492;DHT22;20737;49.908;8.126;2022-10-16T00:42:24;14.00;99.90
34492;DHT22;20737;49.908;8.126;2022-10-16T00:44:53;14.10;99.90
34492;DHT22;20737;49.908;8.126;2022-10-16T00:47:27;14.10;99.90
34492;DHT22;20737;49.908;8.126;2022-10-16T00:49:59;14.10;99.90
34492;DHT22;20737;49.908;8.126;2022-10-16T00:52:27;14.10;99.90
34492;DHT22;20737;49.908;8.126;2022-10-16T00:54:54;14.10;99.90
34492;DHT22;20737;49.908;8.126;2022-10-16T00:57:22;14.10;99.90
34492;DHT22;20737;49.908;8.126;2022-10-16T00:59:49;14.10;99.90
34492;DHT22;20737;49.908;8.126;2022-10-16T01:02:16;14.10;99.90
34492;DHT22;20737;49.908;8.126;2022-10-16T01:04:47;14.20;99.90
34492;DHT22;20737;49.908;8.126;2022-10-16T01:07:20;14.20;99.90
34492;DHT22;20737;49.908;8.126;2022-10-16T01:10:01;14.20;99.90
34492;DHT22;20737;49.908;8.126;2022-10-16T01:12:36;14.10;99.90
34492;DHT22;20737;49.908;8.126;2022-10-16T01:15:10;14.10;99.90
34492;DHT22;20737;49.908;8.126;2022-10-16T01:17:43;14.10;99.90
34492;DHT22;20737;49.908;8.126;2022-10-16T01:20:18;14.10;99.90
34492;DHT22;20737;49.908;8.126;2022-10-16T01:23:02;14.10;99.90
34492;DHT22;20737;49.908;8.126;2022-10-16T01:25:45;14.10;99.90
34492;DHT22;20737;49.908;8.126;2022-10-16T01:28:17;14.20;99.90
34492;DHT22;20737;49.908;8.126;2022-10-16T01:30:45;14.20;99.90
34492;DHT22;20737;49.908;8.126;2022-10-16T01:33:16;14.10;99.90
34492;DHT22;20737;49.908;8.126;2022-10-16T01:35:47;14.10;99.90
34492;DHT22;20737;49.908;8.126;2022-10-16T01:38:17;14.10;99.90
34492;DHT22;20737;49.908;8.126;2022-10-16T01:40:49;14.10;99.90
34492;DHT22;20737;49.908;8.126;2022-10-16T01:43:20;14.10;99.90
34492;DHT22;20737;49.908;8.126;2022-10-16T01:45:49;14.10;99.90
34492;DHT22;20737;49.908;8.126;2022-10-16T01:48:19;14.10;99.90
34492;DHT22;20737;49.908;8.126;2022-10-16T01:50:52;14.10;99.90
34492;DHT22;20737;49.908;8.126;2022-10-16T01:53:20;14.20;99.90
34492;DHT22;20737;49.908;8.126;2022-10-16T01:55:49;14.20;99.90
34492;DHT22;20737;49.908;8.126;2022-10-16T01:58:18;14.20;99.90
34492;DHT22;20737;49.908;8.126;2022-10-16T02:00:46;14.20;99.90
34492;DHT22;20737;49.908;8.126;2022-10-16T02:03:16;14.30;99.90
34492;DHT22;20737;49.908;8.126;2022-10-16T02:05:46;14.20;99.90
34492;DHT22;20737;49.908;8.126;2022-10-16T02:08:13;14.30;99.90
34492;DHT22;20737;49.908;8.126;2022-10-16T02:10:40;14.30;99.90
34492;DHT22;20737;49.908;8.126;2022-10-16T02:13:10;14.30;99.90
34492;DHT22;20737;49.908;8.126;2022-10-16T02:15:39;14.40;99.90
34492;DHT22;20737;49.908;8.126;2022-10-16T02:18:07;14.40;99.90
34492;DHT22;20737;49.908;8.126;2022-10-16T02:20:38;14.40;99.90
34492;DHT22;20737;49.908;8.126;2022-10-16T02:23:11;14.40;99.90
34492;DHT22;20737;49.908;8.126;2022-10-16T02:25:41;14.50;99.90
34492;DHT22;20737;49.908;8.126;2022-10-16T02:28:15;14.50;99.90
34492;DHT22;20737;49.908;8.126;2022-10-16T02:30:46;14.50;99.90
34492;DHT22;20737;49.908;8.126;2022-10-16T02:33:16;14.50;99.90
34492;DHT22;20737;49.908;8.126;2022-10-16T02:35:45;14.50;99.90
34492;DHT22;20737;49.908;8.126;2022-10-16T02:38:14;14.50;99.90
34492;DHT22;20737;49.908;8.126;2022-10-16T02:40:42;14.50;99.90
34492;DHT22;20737;49.908;8.126;2022-10-16T02:43:09;14.50;99.90
34492;DHT22;20737;49.908;8.126;2022-10-16T02:45:37;14.50;99.90
34492;DHT22;20737;49.908;8.126;2022-10-16T02:48:05;14.50;99.90
34492;DHT22;20737;49.908;8.126;2022-10-16T02:50:32;14.50;99.90
34492;DHT22;20737;49.908;8.126;2022-10-16T02:52:59;14.40;99.90
34492;DHT22;20737;49.908;8.126;2022-10-16T02:55:26;14.40;99.90
34492;DHT22;20737;49.908;8.126;2022-10-16T02:57:53;14.40;99.90
34492;DHT22;20737;49.908;8.126;2022-10-16T03:00:20;14.40;99.90
34492;DHT22;20737;49.908;8.126;2022-10-16T03:02:47;14.40;99.90
34492;DHT22;20737;49.908;8.126;2022-10-16T03:05:16;14.50;99.90
34492;DHT22;20737;49.908;8.126;2022-10-16T03:07:42;14.50;99.90
34492;DHT22;20737;49.908;8.126;2022-10-16T03:10:09;14.50;99.90
34492;DHT22;20737;49.908;8.126;2022-10-16T03:12:36;14.50;99.90
34492;DHT22;20737;49.908;8.126;2022-10-16T03:15:03;14.50;99.90
34492;DHT22;20737;49.908;8.126;2022-10-16T03:17:31;14.50;99.90
34492;DHT22;20737;49.908;8.126;2022-10-16T03:19:58;14.50;99.90
34492;DHT22;20737;49.908;8.126;2022-10-16T03:22:26;14.50;99.90
34492;DHT22;20737;49.908;8.126;2022-10-16T03:24:53;14.50;99.90
34492;DHT22;20737;49.908;8.126;2022-10-16T03:27:19;14.50;99.90
34492;DHT22;20737;49.908;8.126;2022-10-16T03:29:46;14.50;99.90
34492;DHT22;20737;49.908;8.126;2022-10-16T03:32:13;14.50;99.90
34492;DHT22;20737;49.908;8.126;2022-10-16T03:34:40;14.50;99.90
34492;DHT22;20737;49.908;8.126;2022-10-16T03:37:06;14.50;99.90
34492;DHT22;20737;49.908;8.126;2022-10-16T03:39:34;14.40;99.90
34492;DHT22;20737;49.908;8.126;2022-10-16T03:42:01;14.40;99.90
34492;DHT22;20737;49.908;8.126;2022-10-16T03:44:28;14.40;99.90
34492;DHT22;20737;49.908;8.126;2022-10-16T03:46:55;14.30;99.90
34492;DHT22;20737;49.908;8.126;2022-10-16T03:49:21;14.30;99.90
34492;DHT22;20737;49.908;8.126;2022-10-16T03:51:48;14.40;99.90
34492;DHT22;20737;49.908;8.126;2022-10-16T03:54:15;14.40;99.90
34492;DHT22;20737;49.908;8.126;2022-10-16T03:56:43;14.40;99.90
34492;DHT22;20737;49.908;8.126;2022-10-16T03:59:09;14.40;99.90
34492;DHT22;20737;49.908;8.126;2022-10-16T04:01:36;14.50;99.90
34492;DHT22;20737;49.908;8.126;2022-10-16T04:04:03;14.50;99.90
34492;DHT22;20737;49.908;8.126;2022-10-16T04:06:30;14.50;99.90
34492;DHT22;20737;49.908;8.126;2022-10-16T04:08:56;14.50;99.90
34492;DHT22;20737;49.908;8.126;2022-10-16T04:11:23;14.50;99.90
34492;DHT22;20737;49.908;8.126;2022-10-16T04:13:51;14.40;99.90
34492;DHT22;20737;49.908;8.126;2022-10-16T04:16:18;14.40;99.90
34492;DHT22;20737;49.908;8.126;2022-10-16T04:18:45;14.40;99.90
34492;DHT22;20737;49.908;8.126;2022-10-16T04:21:11;14.30;99.90
34492;DHT22;20737;49.908;8.126;2022-10-16T04:23:38;14.30;99.90
34492;DHT22;20737;49.908;8.126;2022-10-16T04:26:05;14.30;99.90
34492;DHT22;20737;49.908;8.126;2022-10-16T04:28:32;14.30;99.90
34492;DHT22;20737;49.908;8.126;2022-10-16T04:31:00;14.30;99.90
34492;DHT22;20737;49.908;8.126;2022-10-16T04:33:26;14.30;99.90
34492;DHT22;20737;49.908;8.126;2022-10-16T04:35:56;14.30;99.90
34492;DHT22;20737;49.908;8.126;2022-10-16T04:38:23;14.30;99.90
34492;DHT22;20737;49.908;8.126;2022-10-16T04:40:50;14.30;99.90
34492;DHT22;20737;49.908;8.126;2022-10-16T04:43:17;14.20;99.90
34492;DHT22;20737;49.908;8.126;2022-10-16T04:45:44;14.20;99.90
34492;DHT22;20737;49.908;8.126;2022-10-16T04:48:12;14.10;99.90
34492;DHT22;20737;49.908;8.126;2022-10-16T04:50:39;14.10;99.90
34492;DHT22;20737;49.908;8.126;2022-10-16T04:53:05;14.00;99.90
34492;DHT22;20737;49.908;8.126;2022-10-16T04:55:32;14.10;99.90
34492;DHT22;20737;49.908;8.126;2022-10-16T04:57:59;14.00;99.90
34492;DHT22;20737;49.908;8.126;2022-10-16T05:00:26;14.10;99.90
34492;DHT22;20737;49.908;8.126;2022-10-16T05:02:53;14.10;99.90
34492;DHT22;20737;49.908;8.126;2022-10-16T05:05:21;14.10;99.90
34492;DHT22;20737;49.908;8.126;2022-10-16T05:07:48;14.10;99.90
34492;DHT22;20737;49.908;8.126;2022-10-16T05:10:15;14.10;99.90
34492;DHT22;20737;49.908;8.126;2022-10-16T05:12:42;14.00;99.90
34492;DHT22;20737;49.908;8.126;2022-10-16T05:15:09;14.00;99.90
34492;DHT22;20737;49.908;8.126;2022-10-16T05:17:37;14.00;99.90
34492;DHT22;20737;49.908;8.126;2022-10-16T05:20:04;14.10;99.90
34492;DHT22;20737;49.908;8.126;2022-10-16T05:22:33;14.10;99.90
34492;DHT22;20737;49.908;8.126;2022-10-16T05:24:59;14.00;99.90
34492;DHT22;20737;49.908;8.126;2022-10-16T05:27:26;14.00;99.90
34492;DHT22;20737;49.908;8.126;2022-10-16T05:29:53;14.00;99.90
34492;DHT22;20737;49.908;8.126;2022-10-16T05:32:19;14.00;99.90
34492;DHT22;20737;49.908;8.126;2022-10-16T05:34:46;14.00;99.90
34492;DHT22;20737;49.908;8.126;2022-10-16T05:37:13;14.00;99.90
34492;DHT22;20737;49.908;8.126;2022-10-16T05:39:41;14.00;99.90
34492;DHT22;20737;49.908;8.126;2022-10-16T05:42:08;14.00;99.90
34492;DHT22;20737;49.908;8.126;2022-10-16T05:44:34;14.10;99.90
34492;DHT22;20737;49.908;8.126;2022-10-16T05:47:01;14.10;99.90
34492;DHT22;20737;49.908;8.126;2022-10-16T05:49:28;14.20;99.90
34492;DHT22;20737;49.908;8.126;2022-10-16T05:51:55;14.20;99.90
34492;DHT22;20737;49.908;8.126;2022-10-16T05:54:21;14.20;99.90
34492;DHT22;20737;49.908;8.126;2022-10-16T05:56:49;14.20;99.90
34492;DHT22;20737;49.908;8.126;2022-10-16T05:59:16;14.30;99.90
34492;DHT22;20737;49.908;8.126;2022-10-16T06:01:43;14.30;99.90
34492;DHT22;20737;49.908;8.126;2022-10-16T06:04:10;14.30;99.90
34492;DHT22;20737;49.908;8.126;2022-10-16T06:06:36;14.30;99.90
34492;DHT22;20737;49.908;8.126;2022-10-16T06:09:04;14.30;99.90
34492;DHT22;20737;49.908;8.126;2022-10-16T06:11:31;14.30;99.90
34492;DHT22;20737;49.908;8.126;2022-10-16T06:14:01;14.30;99.90
34492;DHT22;20737;49.908;8.126;2022-10-16T06:16:32;14.40;99.90
34492;DHT22;20737;49.908;8.126;2022-10-16T06:18:58;14.40;99.90
34492;DHT22;20737;49.908;8.126;2022-10-16T06:21:26;14.30;99.90
34492;DHT22;20737;49.908;8.126;2022-10-16T06:23:54;14.40;99.90
34492;DHT22;20737;49.908;8.126;2022-10-16T06:26:22;14.30;99.90
34492;DHT22;20737;49.908;8.126;2022-10-16T06:28:49;14.30;99.90
34492;DHT22;20737;49.908;8.126;2022-10-16T06:31:18;14.30;99.90
34492;DHT22;20737;49.908;8.126;2022-10-16T06:33:44;14.30;99.90
34492;DHT22;20737;49.908;8.126;2022-10-16T06:36:13;14.30;99.90
34492;DHT22;20737;49.908;8.126;2022-10-16T06:38:41;14.30;99.90
34492;DHT22;20737;49.908;8.126;2022-10-16T06:41:10;14.30;99.90
34492;DHT22;20737;49.908;8.126;2022-10-16T06:43:37;14.30;99.90
34492;DHT22;20737;49.908;8.126;2022-10-16T06:46:05;14.40;99.90
34492;DHT22;20737;49.908;8.126;2022-10-16T06:48:34;14.40;99.90
34492;DHT22;20737;49.908;8.126;2022-10-16T06:51:03;14.40;99.90
34492;DHT22;20737;49.908;8.126;2022-10-16T06:53:33;14.50;99.90
34492;DHT22;20737;49.908;8.126;2022-10-16T06:56:06;14.50;99.90
34492;DHT22;20737;49.908;8.126;2022-10-16T06:58:33;14.50;99.90
34492;DHT22;20737;49.908;8.126;2022-10-16T07:01:00;14.50;99.90
34492;DHT22;20737;49.908;8.126;2022-10-16T07:03:27;14.60;99.90
34492;DHT22;20737;49.908;8.126;2022-10-16T07:05:55;14.60;99.90
34492;DHT22;20737;49.908;8.126;2022-10-16T07:08:21;14.60;99.90
34492;DHT22;20737;49.908;8.126;2022-10-16T07:10:48;14.60;99.90
34492;DHT22;20737;49.908;8.126;2022-10-16T07:13:23;14.60;99.90
34492;DHT22;20737;49.908;8.126;2022-10-16T07:15:50;14.60;99.90
34492;DHT22;20737;49.908;8.126;2022-10-16T07:18:17;14.70;99.90
34492;DHT22;20737;49.908;8.126;2022-10-16T07:20:44;14.70;99.90
34492;DHT22;20737;49.908;8.126;2022-10-16T07:23:12;14.70;99.90
34492;DHT22;20737;49.908;8.126;2022-10-16T07:25:39;14.80;99.90
34492;DHT22;20737;49.908;8.126;2022-10-16T07:28:06;14.80;99.90
34492;DHT22;20737;49.908;8.126;2022-10-16T07:30:35;14.90;99.90
34492;DHT22;20737;49.908;8.126;2022-10-16T07:33:03;14.90;99.90
34492;DHT22;20737;49.908;8.126;2022-10-16T07:35:29;14.90;99.90
34492;DHT22;20737;49.908;8.126;2022-10-16T07:37:56;15.10;99.90
34492;DHT22;20737;49.908;8.126;2022-10-16T07:40:24;15.10;99.90
34492;DHT22;20737;49.908;8.126;2022-10-16T07:42:52;15.10;99.90
34492;DHT22;20737;49.908;8.126;2022-10-16T07:45:19;15.10;99.90
34492;DHT22;20737;49.908;8.126;2022-10-16T07:47:46;15.20;99.90
34492;DHT22;20737;49.908;8.126;2022-10-16T07:50:13;15.20;99.90
34492;DHT22;20737;49.908;8.126;2022-10-16T07:52:39;15.30;99.90
34492;DHT22;20737;49.908;8.126;2022-10-16T07:55:07;15.40;99.90
34492;DHT22;20737;49.908;8.126;2022-10-16T07:57:35;15.50;99.90
34492;DHT22;20737;49.908;8.126;2022-10-16T08:00:02;15.70;99.90
34492;DHT22;20737;49.908;8.126;2022-10-16T08:02:29;15.80;99.90
34492;DHT22;20737;49.908;8.126;2022-10-16T08:04:56;15.80;99.90
34492;DHT22;20737;49.908;8.126;2022-10-16T08:07:22;15.80;99.90
34492;DHT22;20737;49.908;8.126;2022-10-16T08:09:49;15.90;99.90
34492;DHT22;20737;49.908;8.126;2022-10-16T08:12:17;15.90;99.90
34492;DHT22;20737;49.908;8.126;2022-10-16T08:14:45;15.90;99.90
34492;DHT22;20737;49.908;8.126;2022-10-16T08:17:14;15.90;99.90
34492;DHT22;20737;49.908;8.126;2022-10-16T08:19:44;15.90;99.90
34492;DHT22;20737;49.908;8.126;2022-10-16T08:22:11;16.00;99.90
34492;DHT22;20737;49.908;8.126;2022-10-16T08:24:37;16.00;99.90
34492;DHT22;20737;49.908;8.126;2022-10-16T08:27:04;16.10;99.90
34492;DHT22;20737;49.908;8.126;2022-10-16T08:29:31;16.00;99.90
34492;DHT22;20737;49.908;8.126;2022-10-16T08:31:59;16.10;99.90
34492;DHT22;20737;49.908;8.126;2022-10-16T08:34:26;16.10;99.90
34492;DHT22;20737;49.908;8.126;2022-10-16T08:36:53;16.20;99.90
34492;DHT22;20737;49.908;8.126;2022-10-16T08:39:19;16.30;99.90
34492;DHT22;20737;49.908;8.126;2022-10-16T08:42:07;16.30;99.90
34492;DHT22;20737;49.908;8.126;2022-10-16T08:44:55;16.20;99.90
34492;DHT22;20737;49.908;8.126;2022-10-16T08:47:34;16.20;99.90
34492;DHT22;20737;49.908;8.126;2022-10-16T08:50:09;16.10;99.90
34492;DHT22;20737;49.908;8.126;2022-10-16T08:52:40;16.10;99.90
34492;DHT22;20737;49.908;8.126;2022-10-16T08:55:19;16.00;99.90
34492;DHT22;20737;49.908;8.126;2022-10-16T08:57:49;16.10;99.90
34492;DHT22;20737;49.908;8.126;2022-10-16T09:00:16;16.20;99.90
34492;DHT22;20737;49.908;8.126;2022-10-16T09:02:50;16.40;99.90
34492;DHT22;20737;49.908;8.126;2022-10-16T09:05:29;16.60;99.90
34492;DHT22;20737;49.908;8.126;2022-10-16T09:08:07;16.70;99.90
34492;DHT22;20737;49.908;8.126;2022-10-16T09:10:42;16.70;99.90
34492;DHT22;20737;49.908;8.126;2022-10-16T09:13:18;17.00;99.90
34492;DHT22;20737;49.908;8.126;2022-10-16T09:15:54;17.60;99.90
34492;DHT22;20737;49.908;8.126;2022-10-16T09:18:29;18.20;99.90
34492;DHT22;20737;49.908;8.126;2022-10-16T09:21:02;18.70;99.90
34492;DHT22;20737;49.908;8.126;2022-10-16T09:23:34;19.30;99.90
34492;DHT22;20737;49.908;8.126;2022-10-16T09:26:03;20.00;99.90
34492;DHT22;20737;49.908;8.126;2022-10-16T09:28:31;20.20;99.90
34492;DHT22;20737;49.908;8.126;2022-10-16T09:30:58;19.80;99.90
34492;DHT22;20737;49.908;8.126;2022-10-16T09:33:30;19.40;99.90
34492;DHT22;20737;49.908;8.126;2022-10-16T09:35:59;18.90;99.90
34492;DHT22;20737;49.908;8.126;2022-10-16T09:38:30;18.40;99.90
34492;DHT22;20737;49.908;8.126;2022-10-16T09:40:59;18.10;99.90
34492;DHT22;20737;49.908;8.126;2022-10-16T09:43:28;17.80;99.90
34492;DHT22;20737;49.908;8.126;2022-10-16T09:46:01;17.70;99.90
34492;DHT22;20737;49.908;8.126;2022-10-16T09:48:33;17.70;99.90
34492;DHT22;20737;49.908;8.126;2022-10-16T09:51:03;17.70;99.90
34492;DHT22;20737;49.908;8.126;2022-10-16T09:53:41;17.70;99.90
34492;DHT22;20737;49.908;8.126;2022-10-16T09:56:10;18.00;99.90
34492;DHT22;20737;49.908;8.126;2022-10-16T09:58:42;18.10;99.90
34492;DHT22;20737;49.908;8.126;2022-10-16T10:01:13;18.30;99.90
34492;DHT22;20737;49.908;8.126;2022-10-16T10:03:43;18.60;99.90
34492;DHT22;20737;49.908;8.126;2022-10-16T10:06:21;18.90;99.90
34492;DHT22;20737;49.908;8.126;2022-10-16T10:08:54;19.20;99.90
34492;DHT22;20737;49.908;8.126;2022-10-16T10:11:39;19.60;99.90
34492;DHT22;20737;49.908;8.126;2022-10-16T10:14:09;20.00;99.90
34492;DHT22;20737;49.908;8.126;2022-10-16T10:16:41;20.00;99.90
34492;DHT22;20737;49.908;8.126;2022-10-16T10:19:14;20.10;99.90
34492;DHT22;20737;49.908;8.126;2022-10-16T10:21:41;20.30;99.90
34492;DHT22;20737;49.908;8.126;2022-10-16T10:24:10;20.20;99.90
34492;DHT22;20737;49.908;8.126;2022-10-16T10:26:38;20.30;99.90
34492;DHT22;20737;49.908;8.126;2022-10-16T10:29:14;20.40;99.90
34492;DHT22;20737;49.908;8.126;2022-10-16T10:31:49;20.60;99.90
34492;DHT22;20737;49.908;8.126;2022-10-16T10:34:34;20.70;99.90
34492;DHT22;20737;49.908;8.126;2022-10-16T10:37:13;20.90;99.90
34492;DHT22;20737;49.908;8.126;2022-10-16T10:39:49;21.20;99.90
34492;DHT22;20737;49.908;8.126;2022-10-16T10:42:25;21.40;99.90
34492;DHT22;20737;49.908;8.126;2022-10-16T10:45:16;21.60;99.90
34492;DHT22;20737;49.908;8.126;2022-10-16T10:47:52;21.50;99.90
34492;DHT22;20737;49.908;8.126;2022-10-16T10:50:26;21.20;99.90
34492;DHT22;20737;49.908;8.126;2022-10-16T10:53:00;21.10;99.90
34492;DHT22;20737;49.908;8.126;2022-10-16T10:55:37;21.00;99.90
34492;DHT22;20737;49.908;8.126;2022-10-16T10:58:34;21.10;99.90
34492;DHT22;20737;49.908;8.126;2022-10-16T11:01:08;21.30;99.90
34492;DHT22;20737;49.908;8.126;2022-10-16T11:03:56;21.70;99.90
34492;DHT22;20737;49.908;8.126;2022-10-16T11:06:30;21.40;99.90
34492;DHT22;20737;49.908;8.126;2022-10-16T11:09:00;21.50;99.90
34492;DHT22;20737;49.908;8.126;2022-10-16T11:11:32;21.70;99.90
34492;DHT22;20737;49.908;8.126;2022-10-16T11:14:05;21.80;99.90
34492;DHT22;20737;49.908;8.126;2022-10-16T11:16:36;21.70;99.90
34492;DHT22;20737;49.908;8.126;2022-10-16T11:19:11;21.60;99.90
34492;DHT22;20737;49.908;8.126;2022-10-16T11:21:44;21.50;99.90
34492;DHT22;20737;49.908;8.126;2022-10-16T11:24:20;21.60;99.90
34492;DHT22;20737;49.908;8.126;2022-10-16T11:26:50;21.60;99.90
34492;DHT22;20737;49.908;8.126;2022-10-16T11:29:26;21.90;99.90
34492;DHT22;20737;49.908;8.126;2022-10-16T11:31:58;21.80;99.90
34492;DHT22;20737;49.908;8.126;2022-10-16T11:34:30;21.80;99.90
34492;DHT22;20737;49.908;8.126;2022-10-16T11:37:03;22.00;99.90
34492;DHT22;20737;49.908;8.126;2022-10-16T11:39:32;22.10;99.90
34492;DHT22;20737;49.908;8.126;2022-10-16T11:42:03;22.20;99.90
34492;DHT22;20737;49.908;8.126;2022-10-16T11:44:40;22.90;99.90
34492;DHT22;20737;49.908;8.126;2022-10-16T11:47:19;23.90;99.90
34492;DHT22;20737;49.908;8.126;2022-10-16T11:49:52;23.90;99.90
34492;DHT22;20737;49.908;8.126;2022-10-16T11:52:28;24.30;99.90
34492;DHT22;20737;49.908;8.126;2022-10-16T11:55:01;26.10;99.90
34492;DHT22;20737;49.908;8.126;2022-10-16T11:57:33;26.10;99.90
34492;DHT22;20737;49.908;8.126;2022-10-16T12:00:04;25.40;99.90
34492;DHT22;20737;49.908;8.126;2022-10-16T12:02:40;24.70;99.90
34492;DHT22;20737;49.908;8.126;2022-10-16T12:05:19;24.00;99.90
34492;DHT22;20737;49.908;8.126;2022-10-16T12:07:55;24.50;99.90
34492;DHT22;20737;49.908;8.126;2022-10-16T12:10:29;24.80;99.90
34492;DHT22;20737;49.908;8.126;2022-10-16T12:12:57;24.60;99.90
34492;DHT22;20737;49.908;8.126;2022-10-16T12:15:25;25.30;99.90
34492;DHT22;20737;49.908;8.126;2022-10-16T12:17:53;25.80;99.90
34492;DHT22;20737;49.908;8.126;2022-10-16T12:20:23;25.80;99.90
34492;DHT22;20737;49.908;8.126;2022-10-16T12:22:54;25.80;99.90
34492;DHT22;20737;49.908;8.126;2022-10-16T12:25:25;25.90;99.90
34492;DHT22;20737;49.908;8.126;2022-10-16T12:28:01;25.70;99.90
34492;DHT22;20737;49.908;8.126;2022-10-16T12:30:31;25.50;99.90
34492;DHT22;20737;49.908;8.126;2022-10-16T12:33:00;25.50;99.90
34492;DHT22;20737;49.908;8.126;2022-10-16T12:35:30;25.20;99.90
34492;DHT22;20737;49.908;8.126;2022-10-16T12:38:15;24.80;99.90
34492;DHT22;20737;49.908;8.126;2022-10-16T12:40:43;24.50;99.90
34492;DHT22;20737;49.908;8.126;2022-10-16T12:43:24;23.80;99.90
34492;DHT22;20737;49.908;8.126;2022-10-16T12:46:00;23.40;99.90
34492;DHT22;20737;49.908;8.126;2022-10-16T12:48:27;23.20;99.90
34492;DHT22;20737;49.908;8.126;2022-10-16T12:50:54;22.80;99.90
34492;DHT22;20737;49.908;8.126;2022-10-16T12:53:24;22.50;99.90
34492;DHT22;20737;49.908;8.126;2022-10-16T12:55:58;22.10;99.90
34492;DHT22;20737;49.908;8.126;2022-10-16T12:58:58;21.90;99.90
34492;DHT22;20737;49.908;8.126;2022-10-16T13:01:47;21.80;99.90
34492;DHT22;20737;49.908;8.126;2022-10-16T13:04:42;21.80;99.90
34492;DHT22;20737;49.908;8.126;2022-10-16T13:07:26;21.90;99.90
34492;DHT22;20737;49.908;8.126;2022-10-16T13:10:06;22.00;99.90
34492;DHT22;20737;49.908;8.126;2022-10-16T13:13:10;22.10;99.90
34492;DHT22;20737;49.908;8.126;2022-10-16T13:15:57;22.00;99.90
34492;DHT22;20737;49.908;8.126;2022-10-16T13:18:33;21.80;99.90
34492;DHT22;20737;49.908;8.126;2022-10-16T13:21:18;21.60;99.90
34492;DHT22;20737;49.908;8.126;2022-10-16T13:23:52;21.40;99.90
34492;DHT22;20737;49.908;8.126;2022-10-16T13:26:31;21.20;99.90
34492;DHT22;20737;49.908;8.126;2022-10-16T13:29:02;21.10;99.90
34492;DHT22;20737;49.908;8.126;2022-10-16T13:31:30;20.90;99.90
34492;DHT22;20737;49.908;8.126;2022-10-16T13:33:59;20.80;99.90
34492;DHT22;20737;49.908;8.126;2022-10-16T13:36:28;20.80;99.90
34492;DHT22;20737;49.908;8.126;2022-10-16T13:39:10;20.70;99.90
34492;DHT22;20737;49.908;8.126;2022-10-16T13:41:38;20.70;99.90
34492;DHT22;20737;49.908;8.126;2022-10-16T13:44:14;20.60;99.90
34492;DHT22;20737;49.908;8.126;2022-10-16T13:46:42;20.60;99.90
34492;DHT22;20737;49.908;8.126;2022-10-16T13:49:13;20.50;99.90
34492;DHT22;20737;49.908;8.126;2022-10-16T13:51:41;20.40;99.90
34492;DHT22;20737;49.908;8.126;2022-10-16T13:54:09;20.50;99.90
34492;DHT22;20737;49.908;8.126;2022-10-16T13:56:39;20.50;99.90
34492;DHT22;20737;49.908;8.126;2022-10-16T13:59:22;20.50;99.90
34492;DHT22;20737;49.908;8.126;2022-10-16T14:01:50;20.50;99.90
34492;DHT22;20737;49.908;8.126;2022-10-16T14:04:19;20.60;99.90
34492;DHT22;20737;49.908;8.126;2022-10-16T14:06:49;20.70;99.90
34492;DHT22;20737;49.908;8.126;2022-10-16T14:09:22;20.80;99.90
34492;DHT22;20737;49.908;8.126;2022-10-16T14:11:53;20.80;99.90
34492;DHT22;20737;49.908;8.126;2022-10-16T14:14:21;20.80;99.90
34492;DHT22;20737;49.908;8.126;2022-10-16T14:16:48;20.80;99.90
34492;DHT22;20737;49.908;8.126;2022-10-16T14:19:22;20.90;99.90
34492;DHT22;20737;49.908;8.126;2022-10-16T14:21:50;20.90;99.90
34492;DHT22;20737;49.908;8.126;2022-10-16T14:24:31;20.90;99.90
34492;DHT22;20737;49.908;8.126;2022-10-16T14:27:00;21.00;99.90
34492;DHT22;20737;49.908;8.126;2022-10-16T14:29:29;21.00;99.90
34492;DHT22;20737;49.908;8.126;2022-10-16T14:31:58;21.00;99.90
34492;DHT22;20737;49.908;8.126;2022-10-16T14:34:27;21.00;99.90
34492;DHT22;20737;49.908;8.126;2022-10-16T14:36:54;20.90;99.90
34492;DHT22;20737;49.908;8.126;2022-10-16T14:39:22;20.80;99.90
34492;DHT22;20737;49.908;8.126;2022-10-16T14:41:52;20.80;99.90
34492;DHT22;20737;49.908;8.126;2022-10-16T14:44:27;20.90;99.90
34492;DHT22;20737;49.908;8.126;2022-10-16T14:46:54;20.90;99.90
34492;DHT22;20737;49.908;8.126;2022-10-16T14:49:22;20.90;99.90
34492;DHT22;20737;49.908;8.126;2022-10-16T14:51:50;20.90;99.90
34492;DHT22;20737;49.908;8.126;2022-10-16T14:54:18;20.80;99.90
34492;DHT22;20737;49.908;8.126;2022-10-16T14:56:47;20.70;99.90
34492;DHT22;20737;49.908;8.126;2022-10-16T14:59:18;20.70;99.90
34492;DHT22;20737;49.908;8.126;2022-10-16T15:01:47;20.60;99.90
34492;DHT22;20737;49.908;8.126;2022-10-16T15:04:14;20.50;99.90
34492;DHT22;20737;49.908;8.126;2022-10-16T15:06:42;20.40;99.90
34492;DHT22;20737;49.908;8.126;2022-10-16T15:09:08;20.40;99.90
34492;DHT22;20737;49.908;8.126;2022-10-16T15:11:35;20.40;99.90
34492;DHT22;20737;49.908;8.126;2022-10-16T15:14:03;20.30;99.90
34492;DHT22;20737;49.908;8.126;2022-10-16T15:16:30;20.30;99.90
34492;DHT22;20737;49.908;8.126;2022-10-16T15:18:58;20.20;99.90
34492;DHT22;20737;49.908;8.126;2022-10-16T15:21:27;20.10;99.90
34492;DHT22;20737;49.908;8.126;2022-10-16T15:23:55;20.00;99.90
34492;DHT22;20737;49.908;8.126;2022-10-16T15:26:23;19.90;99.90
34492;DHT22;20737;49.908;8.126;2022-10-16T15:28:49;19.90;99.90
34492;DHT22;20737;49.908;8.126;2022-10-16T15:31:16;19.90;99.90
34492;DHT22;20737;49.908;8.126;2022-10-16T15:33:43;19.90;99.90
34492;DHT22;20737;49.908;8.126;2022-10-16T15:36:14;19.80;99.90
34492;DHT22;20737;49.908;8.126;2022-10-16T15:38:41;19.70;99.90
34492;DHT22;20737;49.908;8.126;2022-10-16T15:41:07;19.70;99.90
34492;DHT22;20737;49.908;8.126;2022-10-16T15:43:34;19.70;99.90
34492;DHT22;20737;49.908;8.126;2022-10-16T15:46:03;19.70;99.90
34492;DHT22;20737;49.908;8.126;2022-10-16T15:48:31;19.70;99.90